sensor_id;sensor_type;location;lat;lon;timestamp;noise_LAeq;noise_LA_min;noise_LA_max;noise_LA01;noise_LA95
72805;Laerm;60920;48.748;19.142;2022-11-22T00:01:30;39.69;37.32;44.35;;
72805;Laerm;60920;48.748;19.142;2022-11-22T00:03:55;39.23;37.42;42.37;;
72805;Laerm;60920;48.748;19.142;2022-11-22T00:06:21;39.53;37.57;44.00;;
72805;Laerm;60920;48.748;19.142;2022-11-22T00:08:46;39.33;37.62;42.57;;
72805;Laerm;60920;48.748;19.142;2022-11-22T00:11:12;39.25;37.38;43.77;;
72805;Laerm;60920;48.748;19.142;2022-11-22T00:13:37;39.05;37.24;40.83;;
72805;Laerm;60920;48.748;19.142;2022-11-22T00:16:03;39.14;37.34;41.37;;
72805;Laerm;60920;48.748;19.142;2022-11-22T00:18:29;38.93;37.30;40.70;;
72805;Laerm;60920;48.748;19.142;2022-11-22T00:20:55;38.98;37.16;40.90;;
72805;Laerm;60920;48.748;19.142;2022-11-22T00:23:20;39.23;37.44;43.35;;
72805;Laerm;60920;48.748;19.142;2022-11-22T00:25:45;39.22;37.17;41.33;;
72805;Laerm;60920;48.748;19.142;2022-11-22T00:28:11;39.17;36.88;42.77;;
72805;Laerm;60920;48.748;19.142;2022-11-22T00:30:37;39.23;37.34;41.82;;
72805;Laerm;60920;48.748;19.142;2022-11-22T00:33:03;39.09;37.52;44.17;;
72805;Laerm;60920;48.748;19.142;2022-11-22T00:35:28;40.58;37.56;48.95;;
72805;Laerm;60920;48.748;19.142;2022-11-22T00:37:53;38.89;36.90;43.85;;
72805;Laerm;60920;48.748;19.142;2022-11-22T00:40:19;38.61;36.47;43.83;;
72805;Laerm;60920;48.748;19.142;2022-11-22T00:42:44;38.93;36.45;44.70;;
72805;Laerm;60920;48.748;19.142;2022-11-22T00:45:09;38.32;36.37;43.32;;
72805;Laerm;60920;48.748;19.142;2022-11-22T00:47:35;38.89;36.68;45.62;;
72805;Laerm;60920;48.748;19.142;2022-11-22T00:50:00;38.71;36.81;40.91;;
72805;Laerm;60920;48.748;19.142;2022-11-22T00:52:26;39.14;36.83;43.05;;
72805;Laerm;60920;48.748;19.142;2022-11-22T00:54:51;38.56;36.88;40.51;;
72805;Laerm;60920;48.748;19.142;2022-11-22T00:57:17;38.42;36.74;40.41;;
72805;Laerm;60920;48.748;19.142;2022-11-22T00:59:42;38.47;36.69;40.30;;
72805;Laerm;60920;48.748;19.142;2022-11-22T01:02:08;38.45;36.94;39.82;;
72805;Laerm;60920;48.748;19.142;2022-11-22T01:04:33;39.41;36.92;46.87;;
72805;Laerm;60920;48.748;19.142;2022-11-22T01:06:59;39.06;36.67;43.44;;
72805;Laerm;60920;48.748;19.142;2022-11-22T01:09:24;38.46;36.85;40.74;;
72805;Laerm;60920;48.748;19.142;2022-11-22T01:11:49;38.35;36.66;41.27;;
72805;Laerm;60920;48.748;19.142;2022-11-22T01:14:15;38.10;35.99;40.81;;
72805;Laerm;60920;48.748;19.142;2022-11-22T01:16:41;38.28;36.35;42.93;;
72805;Laerm;60920;48.748;19.142;2022-11-22T01:19:07;38.13;36.04;42.54;;
72805;Laerm;60920;48.748;19.142;2022-11-22T01:21:32;38.73;35.91;43.78;;
72805;Laerm;60920;48.748;19.142;2022-11-22T01:23:57;37.80;36.18;40.82;;
72805;Laerm;60920;48.748;19.142;2022-11-22T01:26:23;39.14;35.77;47.36;;
72805;Laerm;60920;48.748;19.142;2022-11-22T01:28:48;37.63;35.90;40.50;;
72805;Laerm;60920;48.748;19.142;2022-11-22T01:31:14;37.86;35.87;44.07;;
72805;Laerm;60920;48.748;19.142;2022-11-22T01:33:39;38.05;36.11;43.79;;
72805;Laerm;60920;48.748;19.142;2022-11-22T01:36:04;38.36;35.76;46.86;;
72805;Laerm;60920;48.748;19.142;2022-11-22T01:38:30;38.53;36.45;44.81;;
72805;Laerm;60920;48.748;19.142;2022-11-22T01:40:55;38.64;36.15;45.05;;
72805;Laerm;60920;48.748;19.142;2022-11-22T01:43:22;38.92;36.51;46.50;;
72805;Laerm;60920;48.748;19.142;2022-11-22T01:45:51;38.56;36.64;44.67;;
72805;Laerm;60920;48.748;19.142;2022-11-22T01:48:26;39.35;36.51;46.29;;
72805;Laerm;60920;48.748;19.142;2022-11-22T01:50:54;38.61;35.98;45.77;;
72805;Laerm;60920;48.748;19.142;2022-11-22T01:53:23;38.28;36.14;45.11;;
72805;Laerm;60920;48.748;19.142;2022-11-22T01:55:50;38.02;36.41;40.34;;
72805;Laerm;60920;48.748;19.142;2022-11-22T01:58:15;38.55;35.92;46.74;;
72805;Laerm;60920;48.748;19.142;2022-11-22T02:00:42;38.38;36.25;43.28;;
72805;Laerm;60920;48.748;19.142;2022-11-22T02:03:08;39.58;36.10;46.75;;
72805;Laerm;60920;48.748;19.142;2022-11-22T02:05:36;38.14;36.02;43.92;;
72805;Laerm;60920;48.748;19.142;2022-11-22T02:08:06;39.18;36.10;45.82;;
72805;Laerm;60920;48.748;19.142;2022-11-22T02:10:34;40.61;35.91;47.70;;
72805;Laerm;60920;48.748;19.142;2022-11-22T02:13:00;38.01;35.98;41.63;;
72805;Laerm;60920;48.748;19.142;2022-11-22T02:15:26;37.85;35.89;44.29;;
72805;Laerm;60920;48.748;19.142;2022-11-22T02:17:51;38.39;35.78;44.57;;
72805;Laerm;60920;48.748;19.142;2022-11-22T02:20:17;37.97;35.82;43.04;;
72805;Laerm;60920;48.748;19.142;2022-11-22T02:22:44;38.61;35.84;43.72;;
72805;Laerm;60920;48.748;19.142;2022-11-22T02:27:39;37.87;35.99;42.73;;
72805;Laerm;60920;48.748;19.142;2022-11-22T02:30:04;38.08;35.81;42.01;;
72805;Laerm;60920;48.748;19.142;2022-11-22T02:32:30;39.17;36.26;45.44;;
72805;Laerm;60920;48.748;19.142;2022-11-22T02:34:55;37.76;35.82;42.72;;
72805;Laerm;60920;48.748;19.142;2022-11-22T02:37:21;39.05;36.13;46.16;;
72805;Laerm;60920;48.748;19.142;2022-11-22T02:39:50;37.61;35.63;45.18;;
72805;Laerm;60920;48.748;19.142;2022-11-22T02:42:17;38.62;36.04;44.86;;
72805;Laerm;60920;48.748;19.142;2022-11-22T02:44:42;37.79;35.90;41.22;;
72805;Laerm;60920;48.748;19.142;2022-11-22T02:47:07;39.04;36.08;43.93;;
72805;Laerm;60920;48.748;19.142;2022-11-22T02:49:33;37.64;35.97;40.28;;
72805;Laerm;60920;48.748;19.142;2022-11-22T02:51:58;37.67;35.73;41.49;;
72805;Laerm;60920;48.748;19.142;2022-11-22T02:54:24;38.18;35.60;46.20;;
72805;Laerm;60920;48.748;19.142;2022-11-22T02:56:49;37.89;35.76;41.44;;
72805;Laerm;60920;48.748;19.142;2022-11-22T02:59:14;39.14;35.83;51.20;;
72805;Laerm;60920;48.748;19.142;2022-11-22T03:01:40;38.27;35.70;45.49;;
72805;Laerm;60920;48.748;19.142;2022-11-22T03:04:06;39.51;35.79;47.08;;
72805;Laerm;60920;48.748;19.142;2022-11-22T03:06:31;39.49;36.02;45.75;;
72805;Laerm;60920;48.748;19.142;2022-11-22T03:08:57;39.37;35.69;47.76;;
72805;Laerm;60920;48.748;19.142;2022-11-22T03:11:22;37.89;35.82;42.99;;
72805;Laerm;60920;48.748;19.142;2022-11-22T03:13:48;38.04;35.85;44.80;;
72805;Laerm;60920;48.748;19.142;2022-11-22T03:16:13;38.10;35.58;41.80;;
72805;Laerm;60920;48.748;19.142;2022-11-22T03:18:39;37.82;35.63;41.40;;
72805;Laerm;60920;48.748;19.142;2022-11-22T03:21:05;38.35;35.61;46.02;;
72805;Laerm;60920;48.748;19.142;2022-11-22T03:23:31;37.68;35.96;40.90;;
72805;Laerm;60920;48.748;19.142;2022-11-22T03:25:57;38.88;35.63;46.08;;
72805;Laerm;60920;48.748;19.142;2022-11-22T03:28:23;39.48;36.24;44.73;;
72805;Laerm;60920;48.748;19.142;2022-11-22T03:30:48;38.34;35.80;43.67;;
72805;Laerm;60920;48.748;19.142;2022-11-22T03:33:14;40.06;36.58;47.90;;
72805;Laerm;60920;48.748;19.142;2022-11-22T03:35:39;38.87;36.81;41.76;;
72805;Laerm;60920;48.748;19.142;2022-11-22T03:38:05;38.74;36.86;40.93;;
72805;Laerm;60920;48.748;19.142;2022-11-22T03:40:31;40.09;37.47;43.92;;
72805;Laerm;60920;48.748;19.142;2022-11-22T03:43:00;39.74;37.19;44.29;;
72805;Laerm;60920;48.748;19.142;2022-11-22T03:45:26;39.71;37.32;45.49;;
72805;Laerm;60920;48.748;19.142;2022-11-22T03:47:52;40.04;37.48;45.92;;
72805;Laerm;60920;48.748;19.142;2022-11-22T03:50:17;39.73;37.21;46.61;;
72805;Laerm;60920;48.748;19.142;2022-11-22T03:52:42;40.69;37.52;45.99;;
72805;Laerm;60920;48.748;19.142;2022-11-22T03:55:08;39.89;37.07;45.44;;
72805;Laerm;60920;48.748;19.142;2022-11-22T03:57:33;40.48;37.38;46.41;;
72805;Laerm;60920;48.748;19.142;2022-11-22T03:59:59;39.58;37.33;47.43;;
72805;Laerm;60920;48.748;19.142;2022-11-22T04:02:24;39.93;36.80;43.88;;
72805;Laerm;60920;48.748;19.142;2022-11-22T04:04:50;40.11;37.54;44.46;;
72805;Laerm;60920;48.748;19.142;2022-11-22T04:07:15;40.80;37.71;48.62;;
72805;Laerm;60920;48.748;19.142;2022-11-22T04:09:40;40.57;37.99;44.36;;
72805;Laerm;60920;48.748;19.142;2022-11-22T04:12:06;39.66;37.21;44.12;;
72805;Laerm;60920;48.748;19.142;2022-11-22T04:14:31;40.11;36.85;45.90;;
72805;Laerm;60920;48.748;19.142;2022-11-22T04:17:16;41.61;38.14;46.71;;
72805;Laerm;60920;48.748;19.142;2022-11-22T04:20:01;41.26;37.70;45.63;;
72805;Laerm;60920;48.748;19.142;2022-11-22T04:22:53;40.15;37.65;43.09;;
72805;Laerm;60920;48.748;19.142;2022-11-22T04:25:18;40.14;36.89;46.93;;
72805;Laerm;60920;48.748;19.142;2022-11-22T04:27:44;41.57;38.37;48.01;;
72805;Laerm;60920;48.748;19.142;2022-11-22T04:30:09;40.10;37.51;46.75;;
72805;Laerm;60920;48.748;19.142;2022-11-22T04:32:35;41.03;36.74;45.70;;
72805;Laerm;60920;48.748;19.142;2022-11-22T04:35:09;41.03;37.28;45.92;;
72805;Laerm;60920;48.748;19.142;2022-11-22T04:37:34;41.65;36.93;48.23;;
72805;Laerm;60920;48.748;19.142;2022-11-22T04:40:00;40.63;36.16;45.51;;
72805;Laerm;60920;48.748;19.142;2022-11-22T04:42:25;40.51;36.10;44.37;;
72805;Laerm;60920;48.748;19.142;2022-11-22T04:45:10;41.42;37.29;47.64;;
72805;Laerm;60920;48.748;19.142;2022-11-22T04:47:35;42.13;38.02;47.18;;
72805;Laerm;60920;48.748;19.142;2022-11-22T04:50:19;41.03;36.85;45.12;;
72805;Laerm;60920;48.748;19.142;2022-11-22T04:53:03;42.00;37.00;46.40;;
72805;Laerm;60920;48.748;19.142;2022-11-22T04:55:28;41.96;37.68;47.73;;
72805;Laerm;60920;48.748;19.142;2022-11-22T04:57:54;42.82;38.12;48.59;;
72805;Laerm;60920;48.748;19.142;2022-11-22T05:00:20;41.91;38.12;47.26;;
72805;Laerm;60920;48.748;19.142;2022-11-22T05:02:45;41.30;37.12;45.28;;
72805;Laerm;60920;48.748;19.142;2022-11-22T05:05:10;41.68;38.02;45.86;;
72805;Laerm;60920;48.748;19.142;2022-11-22T05:07:36;43.00;39.52;50.38;;
72805;Laerm;60920;48.748;19.142;2022-11-22T05:10:02;41.83;37.98;46.48;;
72805;Laerm;60920;48.748;19.142;2022-11-22T05:12:27;42.65;38.46;51.88;;
72805;Laerm;60920;48.748;19.142;2022-11-22T05:14:53;42.51;38.51;47.39;;
72805;Laerm;60920;48.748;19.142;2022-11-22T05:17:18;42.40;38.59;48.34;;
72805;Laerm;60920;48.748;19.142;2022-11-22T05:19:43;42.60;37.79;50.35;;
72805;Laerm;60920;48.748;19.142;2022-11-22T05:22:09;42.03;38.10;48.33;;
72805;Laerm;60920;48.748;19.142;2022-11-22T05:24:34;43.05;38.70;49.86;;
72805;Laerm;60920;48.748;19.142;2022-11-22T05:27:00;42.12;38.69;46.77;;
72805;Laerm;60920;48.748;19.142;2022-11-22T05:29:26;43.33;39.50;49.08;;
72805;Laerm;60920;48.748;19.142;2022-11-22T05:31:51;42.58;37.65;47.38;;
72805;Laerm;60920;48.748;19.142;2022-11-22T05:34:16;43.81;40.03;52.88;;
72805;Laerm;60920;48.748;19.142;2022-11-22T05:36:42;43.47;39.20;50.59;;
72805;Laerm;60920;48.748;19.142;2022-11-22T05:39:07;43.42;39.63;47.30;;
72805;Laerm;60920;48.748;19.142;2022-11-22T05:41:33;43.86;39.97;48.24;;
72805;Laerm;60920;48.748;19.142;2022-11-22T05:43:58;43.83;39.76;50.45;;
72805;Laerm;60920;48.748;19.142;2022-11-22T05:46:24;44.53;40.06;51.80;;
72805;Laerm;60920;48.748;19.142;2022-11-22T05:48:51;45.44;39.76;51.64;;
72805;Laerm;60920;48.748;19.142;2022-11-22T05:51:18;43.97;40.17;48.90;;
72805;Laerm;60920;48.748;19.142;2022-11-22T05:53:43;45.54;40.40;56.02;;
72805;Laerm;60920;48.748;19.142;2022-11-22T05:56:10;44.37;40.31;48.92;;
72805;Laerm;60920;48.748;19.142;2022-11-22T05:58:35;43.88;40.59;51.11;;
72805;Laerm;60920;48.748;19.142;2022-11-22T06:01:04;43.71;38.46;53.50;;
72805;Laerm;60920;48.748;19.142;2022-11-22T06:03:30;45.19;40.70;53.91;;
72805;Laerm;60920;48.748;19.142;2022-11-22T06:05:55;42.68;38.71;52.32;;
72805;Laerm;60920;48.748;19.142;2022-11-22T06:08:20;43.78;39.40;48.39;;
72805;Laerm;60920;48.748;19.142;2022-11-22T06:10:45;43.63;39.89;48.43;;
72805;Laerm;60920;48.748;19.142;2022-11-22T06:13:11;43.86;40.19;49.65;;
72805;Laerm;60920;48.748;19.142;2022-11-22T06:15:36;43.94;39.98;48.84;;
72805;Laerm;60920;48.748;19.142;2022-11-22T06:18:01;45.02;40.04;49.89;;
72805;Laerm;60920;48.748;19.142;2022-11-22T06:20:26;44.38;40.33;50.27;;
72805;Laerm;60920;48.748;19.142;2022-11-22T06:22:51;44.43;39.95;50.73;;
72805;Laerm;60920;48.748;19.142;2022-11-22T06:25:17;44.85;39.94;50.43;;
72805;Laerm;60920;48.748;19.142;2022-11-22T06:27:42;44.85;39.94;51.61;;
72805;Laerm;60920;48.748;19.142;2022-11-22T06:30:08;44.13;39.82;49.49;;
72805;Laerm;60920;48.748;19.142;2022-11-22T06:32:33;44.71;41.09;48.44;;
72805;Laerm;60920;48.748;19.142;2022-11-22T06:34:59;45.19;40.85;51.70;;
72805;Laerm;60920;48.748;19.142;2022-11-22T06:37:24;44.99;41.17;50.59;;
72805;Laerm;60920;48.748;19.142;2022-11-22T06:39:50;45.32;41.41;55.34;;
72805;Laerm;60920;48.748;19.142;2022-11-22T06:42:15;45.89;41.88;57.36;;
72805;Laerm;60920;48.748;19.142;2022-11-22T06:44:40;46.00;41.94;53.87;;
72805;Laerm;60920;48.748;19.142;2022-11-22T06:47:05;45.93;41.57;50.39;;
72805;Laerm;60920;48.748;19.142;2022-11-22T06:49:31;45.30;41.54;52.29;;
72805;Laerm;60920;48.748;19.142;2022-11-22T06:51:56;45.85;42.31;51.86;;
72805;Laerm;60920;48.748;19.142;2022-11-22T06:54:21;45.70;41.53;52.02;;
72805;Laerm;60920;48.748;19.142;2022-11-22T06:56:47;44.63;41.15;48.43;;
72805;Laerm;60920;48.748;19.142;2022-11-22T06:59:12;45.51;41.21;52.67;;
72805;Laerm;60920;48.748;19.142;2022-11-22T07:01:38;45.18;40.73;52.11;;
72805;Laerm;60920;48.748;19.142;2022-11-22T07:04:03;45.50;40.62;51.72;;
72805;Laerm;60920;48.748;19.142;2022-11-22T07:06:30;44.81;40.86;50.36;;
72805;Laerm;60920;48.748;19.142;2022-11-22T07:08:56;45.18;41.61;52.44;;
72805;Laerm;60920;48.748;19.142;2022-11-22T07:11:22;44.99;40.74;49.27;;
72805;Laerm;60920;48.748;19.142;2022-11-22T07:13:48;44.49;40.77;53.62;;
72805;Laerm;60920;48.748;19.142;2022-11-22T07:16:14;44.37;40.37;50.34;;
72805;Laerm;60920;48.748;19.142;2022-11-22T07:18:40;44.77;41.00;50.89;;
72805;Laerm;60920;48.748;19.142;2022-11-22T07:21:06;43.64;40.02;49.89;;
72805;Laerm;60920;48.748;19.142;2022-11-22T07:23:32;43.64;39.55;50.39;;
72805;Laerm;60920;48.748;19.142;2022-11-22T07:25:58;44.54;40.68;53.18;;
72805;Laerm;60920;48.748;19.142;2022-11-22T07:28:23;45.34;40.22;56.97;;
72805;Laerm;60920;48.748;19.142;2022-11-22T07:30:49;44.75;41.32;51.51;;
72805;Laerm;60920;48.748;19.142;2022-11-22T07:33:14;44.56;40.74;52.60;;
72805;Laerm;60920;48.748;19.142;2022-11-22T07:35:40;45.85;40.44;61.22;;
72805;Laerm;60920;48.748;19.142;2022-11-22T07:38:05;44.17;39.28;51.06;;
72805;Laerm;60920;48.748;19.142;2022-11-22T07:40:31;44.41;38.20;50.81;;
72805;Laerm;60920;48.748;19.142;2022-11-22T07:42:56;44.06;39.33;50.51;;
72805;Laerm;60920;48.748;19.142;2022-11-22T07:45:21;43.94;39.36;49.30;;
72805;Laerm;60920;48.748;19.142;2022-11-22T07:47:47;44.98;39.27;58.72;;
72805;Laerm;60920;48.748;19.142;2022-11-22T07:50:12;44.91;40.94;55.29;;
72805;Laerm;60920;48.748;19.142;2022-11-22T07:52:38;45.13;40.46;59.62;;
72805;Laerm;60920;48.748;19.142;2022-11-22T07:55:04;44.49;39.57;49.91;;
72805;Laerm;60920;48.748;19.142;2022-11-22T07:57:30;45.05;39.98;50.26;;
72805;Laerm;60920;48.748;19.142;2022-11-22T07:59:55;44.23;38.73;57.43;;
72805;Laerm;60920;48.748;19.142;2022-11-22T08:02:21;44.71;40.56;51.78;;
72805;Laerm;60920;48.748;19.142;2022-11-22T08:04:46;44.04;39.63;50.42;;
72805;Laerm;60920;48.748;19.142;2022-11-22T08:07:11;45.50;40.35;52.02;;
72805;Laerm;60920;48.748;19.142;2022-11-22T08:09:37;44.80;40.60;53.22;;
72805;Laerm;60920;48.748;19.142;2022-11-22T08:12:03;46.23;40.77;52.42;;
72805;Laerm;60920;48.748;19.142;2022-11-22T08:14:28;45.33;39.82;55.72;;
72805;Laerm;60920;48.748;19.142;2022-11-22T08:16:54;44.50;38.90;49.17;;
72805;Laerm;60920;48.748;19.142;2022-11-22T08:19:20;45.23;41.06;52.40;;
72805;Laerm;60920;48.748;19.142;2022-11-22T08:21:46;44.37;40.39;49.83;;
72805;Laerm;60920;48.748;19.142;2022-11-22T08:24:11;44.79;40.16;49.83;;
72805;Laerm;60920;48.748;19.142;2022-11-22T08:26:37;44.65;39.83;49.92;;
72805;Laerm;60920;48.748;19.142;2022-11-22T08:29:03;44.62;40.79;50.44;;
72805;Laerm;60920;48.748;19.142;2022-11-22T08:31:28;43.90;39.28;49.18;;
72805;Laerm;60920;48.748;19.142;2022-11-22T08:33:54;45.47;40.37;51.79;;
72805;Laerm;60920;48.748;19.142;2022-11-22T08:36:19;43.48;38.59;50.90;;
72805;Laerm;60920;48.748;19.142;2022-11-22T08:38:44;44.19;38.32;51.44;;
72805;Laerm;60920;48.748;19.142;2022-11-22T08:41:10;44.31;38.81;50.64;;
72805;Laerm;60920;48.748;19.142;2022-11-22T08:43:35;44.17;40.17;51.93;;
72805;Laerm;60920;48.748;19.142;2022-11-22T08:46:00;43.61;38.74;50.67;;
72805;Laerm;60920;48.748;19.142;2022-11-22T08:48:26;43.94;37.56;52.39;;
72805;Laerm;60920;48.748;19.142;2022-11-22T08:50:53;45.29;40.24;57.50;;
72805;Laerm;60920;48.748;19.142;2022-11-22T08:53:18;45.25;40.19;51.08;;
72805;Laerm;60920;48.748;19.142;2022-11-22T08:55:44;45.01;38.73;64.16;;
72805;Laerm;60920;48.748;19.142;2022-11-22T08:58:09;45.98;39.83;64.22;;
72805;Laerm;60920;48.748;19.142;2022-11-22T09:00:35;45.50;38.80;54.02;;
72805;Laerm;60920;48.748;19.142;2022-11-22T09:03:00;44.34;39.65;51.39;;
72805;Laerm;60920;48.748;19.142;2022-11-22T09:05:25;44.88;39.46;54.76;;
72805;Laerm;60920;48.748;19.142;2022-11-22T09:07:51;44.42;40.78;48.37;;
72805;Laerm;60920;48.748;19.142;2022-11-22T09:10:16;45.80;41.89;50.49;;
72805;Laerm;60920;48.748;19.142;2022-11-22T09:12:42;45.21;39.17;52.93;;
72805;Laerm;60920;48.748;19.142;2022-11-22T09:15:08;46.36;40.43;55.51;;
72805;Laerm;60920;48.748;19.142;2022-11-22T09:17:33;45.51;40.17;57.04;;
72805;Laerm;60920;48.748;19.142;2022-11-22T09:19:58;45.73;41.77;52.93;;
72805;Laerm;60920;48.748;19.142;2022-11-22T09:22:23;45.03;39.51;51.12;;
72805;Laerm;60920;48.748;19.142;2022-11-22T09:24:49;46.34;40.51;59.09;;
72805;Laerm;60920;48.748;19.142;2022-11-22T09:27:14;45.07;38.80;49.70;;
72805;Laerm;60920;48.748;19.142;2022-11-22T09:29:39;46.31;39.25;54.58;;
72805;Laerm;60920;48.748;19.142;2022-11-22T09:32:07;46.30;40.66;52.46;;
72805;Laerm;60920;48.748;19.142;2022-11-22T09:34:33;45.71;41.25;55.75;;
72805;Laerm;60920;48.748;19.142;2022-11-22T09:36:59;45.32;39.12;54.99;;
72805;Laerm;60920;48.748;19.142;2022-11-22T09:39:24;47.04;42.88;54.42;;
72805;Laerm;60920;48.748;19.142;2022-11-22T09:44:44;44.82;40.48;53.46;;
72805;Laerm;60920;48.748;19.142;2022-11-22T09:47:30;45.64;40.33;58.54;;
72805;Laerm;60920;48.748;19.142;2022-11-22T09:50:06;46.69;39.79;56.05;;
72805;Laerm;60920;48.748;19.142;2022-11-22T09:52:39;46.44;41.90;52.84;;
72805;Laerm;60920;48.748;19.142;2022-11-22T09:55:51;46.32;40.56;56.35;;
72805;Laerm;60920;48.748;19.142;2022-11-22T09:58:00;47.51;42.81;53.69;;
72805;Laerm;60920;48.748;19.142;2022-11-22T10:00:26;46.57;40.99;52.01;;
72805;Laerm;60920;48.748;19.142;2022-11-22T10:03:05;46.38;41.81;52.01;;
72805;Laerm;60920;48.748;19.142;2022-11-22T10:05:33;46.43;42.35;54.29;;
72805;Laerm;60920;48.748;19.142;2022-11-22T10:08:09;45.95;39.36;55.24;;
72805;Laerm;60920;48.748;19.142;2022-11-22T10:10:41;46.76;41.56;57.95;;
72805;Laerm;60920;48.748;19.142;2022-11-22T10:18:18;47.28;40.78;58.89;;
72805;Laerm;60920;48.748;19.142;2022-11-22T10:20:46;47.11;41.45;63.54;;
72805;Laerm;60920;48.748;19.142;2022-11-22T10:23:16;47.49;40.95;57.71;;
72805;Laerm;60920;48.748;19.142;2022-11-22T10:25:46;47.75;41.63;60.21;;
72805;Laerm;60920;48.748;19.142;2022-11-22T10:28:18;47.39;41.38;58.18;;
72805;Laerm;60920;48.748;19.142;2022-11-22T10:31:05;45.55;40.13;51.87;;
72805;Laerm;60920;48.748;19.142;2022-11-22T10:33:35;45.72;40.58;52.02;;
72805;Laerm;60920;48.748;19.142;2022-11-22T10:49:40;45.85;41.20;51.85;;
72805;Laerm;60920;48.748;19.142;2022-11-22T11:02:14;47.07;41.16;53.77;;
72805;Laerm;60920;48.748;19.142;2022-11-22T11:07:18;47.01;41.47;56.07;;
72805;Laerm;60920;48.748;19.142;2022-11-22T11:09:48;46.73;40.92;54.75;;
72805;Laerm;60920;48.748;19.142;2022-11-22T11:12:16;47.96;40.36;60.09;;
72805;Laerm;60920;48.748;19.142;2022-11-22T11:15:05;47.89;41.99;53.68;;
72805;Laerm;60920;48.748;19.142;2022-11-22T11:17:31;47.65;42.37;52.23;;
72805;Laerm;60920;48.748;19.142;2022-11-22T11:19:58;46.59;41.78;51.73;;
72805;Laerm;60920;48.748;19.142;2022-11-22T11:22:25;48.69;42.03;63.54;;
72805;Laerm;60920;48.748;19.142;2022-11-22T11:24:52;46.05;38.62;57.29;;
72805;Laerm;60920;48.748;19.142;2022-11-22T11:27:18;49.00;43.89;62.06;;
72805;Laerm;60920;48.748;19.142;2022-11-22T11:32:11;47.48;42.22;57.14;;
72805;Laerm;60920;48.748;19.142;2022-11-22T11:34:38;47.76;42.22;61.20;;
72805;Laerm;60920;48.748;19.142;2022-11-22T11:37:04;46.11;41.60;53.02;;
72805;Laerm;60920;48.748;19.142;2022-11-22T11:39:30;47.00;42.31;52.90;;
72805;Laerm;60920;48.748;19.142;2022-11-22T11:41:57;45.69;39.28;51.29;;
72805;Laerm;60920;48.748;19.142;2022-11-22T11:46:50;46.48;40.56;53.38;;
72805;Laerm;60920;48.748;19.142;2022-11-22T11:49:16;46.78;41.98;54.49;;
72805;Laerm;60920;48.748;19.142;2022-11-22T11:51:43;48.12;41.89;58.89;;
72805;Laerm;60920;48.748;19.142;2022-11-22T11:54:19;46.01;41.05;53.19;;
72805;Laerm;60920;48.748;19.142;2022-11-22T11:56:47;46.87;41.19;54.52;;
72805;Laerm;60920;48.748;19.142;2022-11-22T11:59:13;45.90;40.54;51.88;;
72805;Laerm;60920;48.748;19.142;2022-11-22T12:01:49;47.21;41.60;52.88;;
72805;Laerm;60920;48.748;19.142;2022-11-22T12:04:20;46.17;41.83;50.51;;
72805;Laerm;60920;48.748;19.142;2022-11-22T12:06:54;46.74;41.12;52.59;;
72805;Laerm;60920;48.748;19.142;2022-11-22T12:09:25;45.88;40.45;50.73;;
72805;Laerm;60920;48.748;19.142;2022-11-22T12:11:52;47.55;41.89;56.57;;
72805;Laerm;60920;48.748;19.142;2022-11-22T12:14:17;46.90;41.99;58.12;;
72805;Laerm;60920;48.748;19.142;2022-11-22T12:16:48;46.05;40.98;51.34;;
72805;Laerm;60920;48.748;19.142;2022-11-22T12:22:18;46.60;42.34;50.61;;
72805;Laerm;60920;48.748;19.142;2022-11-22T12:24:46;46.13;41.41;52.73;;
72805;Laerm;60920;48.748;19.142;2022-11-22T12:27:14;47.59;43.15;54.78;;
72805;Laerm;60920;48.748;19.142;2022-11-22T12:29:39;47.37;41.74;53.02;;
72805;Laerm;60920;48.748;19.142;2022-11-22T12:34:59;50.35;42.22;66.34;;
72805;Laerm;60920;48.748;19.142;2022-11-22T12:37:27;51.69;42.83;70.00;;
72805;Laerm;60920;48.748;19.142;2022-11-22T12:39:54;47.70;42.71;54.44;;
72805;Laerm;60920;48.748;19.142;2022-11-22T12:42:23;47.16;42.25;52.11;;
72805;Laerm;60920;48.748;19.142;2022-11-22T12:44:53;47.72;41.23;55.30;;
72805;Laerm;60920;48.748;19.142;2022-11-22T12:47:23;47.91;42.39;57.43;;
72805;Laerm;60920;48.748;19.142;2022-11-22T12:49:59;47.91;43.61;56.94;;
72805;Laerm;60920;48.748;19.142;2022-11-22T12:52:30;47.79;41.25;54.08;;
72805;Laerm;60920;48.748;19.142;2022-11-22T13:00:13;46.57;41.57;52.74;;
72805;Laerm;60920;48.748;19.142;2022-11-22T13:05:19;47.16;43.12;51.47;;
72805;Laerm;60920;48.748;19.142;2022-11-22T13:07:52;46.88;42.83;53.24;;
72805;Laerm;60920;48.748;19.142;2022-11-22T13:10:36;48.49;43.06;55.79;;
72805;Laerm;60920;48.748;19.142;2022-11-22T13:13:03;48.10;43.31;54.37;;
72805;Laerm;60920;48.748;19.142;2022-11-22T13:15:31;47.42;43.04;54.76;;
72805;Laerm;60920;48.748;19.142;2022-11-22T13:18:00;47.69;42.77;52.60;;
72805;Laerm;60920;48.748;19.142;2022-11-22T13:20:27;46.78;42.37;52.74;;
72805;Laerm;60920;48.748;19.142;2022-11-22T13:28:16;47.79;43.11;55.64;;
72805;Laerm;60920;48.748;19.142;2022-11-22T13:33:54;47.60;43.48;53.23;;
72805;Laerm;60920;48.748;19.142;2022-11-22T13:38:51;48.70;42.90;55.16;;
72805;Laerm;60920;48.748;19.142;2022-11-22T13:41:40;47.45;42.68;51.09;;
72805;Laerm;60920;48.748;19.142;2022-11-22T13:46:50;46.47;41.65;52.28;;
72805;Laerm;60920;48.748;19.142;2022-11-22T13:51:55;46.85;41.33;52.21;;
72805;Laerm;60920;48.748;19.142;2022-11-22T13:59:46;47.30;43.07;52.83;;
72805;Laerm;60920;48.748;19.142;2022-11-22T14:02:20;47.31;42.72;53.51;;
72805;Laerm;60920;48.748;19.142;2022-11-22T14:04:50;46.97;43.45;51.27;;
72805;Laerm;60920;48.748;19.142;2022-11-22T14:09:42;46.75;42.83;53.71;;
72805;Laerm;60920;48.748;19.142;2022-11-22T14:14:53;47.45;42.93;52.40;;
72805;Laerm;60920;48.748;19.142;2022-11-22T14:20:13;47.02;42.87;52.96;;
72805;Laerm;60920;48.748;19.142;2022-11-22T14:22:48;45.97;42.56;49.35;;
72805;Laerm;60920;48.748;19.142;2022-11-22T14:28:26;47.01;42.08;53.11;;
72805;Laerm;60920;48.748;19.142;2022-11-22T14:30:55;46.75;42.62;52.59;;
72805;Laerm;60920;48.748;19.142;2022-11-22T14:33:22;46.03;42.98;49.22;;
72805;Laerm;60920;48.748;19.142;2022-11-22T14:43:41;47.87;43.19;69.96;;
72805;Laerm;60920;48.748;19.142;2022-11-22T14:46:09;47.41;43.32;56.01;;
72805;Laerm;60920;48.748;19.142;2022-11-22T14:48:41;47.87;43.78;55.65;;
72805;Laerm;60920;48.748;19.142;2022-11-22T14:51:10;46.34;42.61;52.51;;
72805;Laerm;60920;48.748;19.142;2022-11-22T14:53:50;47.36;43.11;53.40;;
72805;Laerm;60920;48.748;19.142;2022-11-22T14:56:16;47.93;43.12;57.54;;
72805;Laerm;60920;48.748;19.142;2022-11-22T14:58:55;47.66;43.25;52.88;;
72805;Laerm;60920;48.748;19.142;2022-11-22T15:06:27;46.88;43.44;52.99;;
72805;Laerm;60920;48.748;19.142;2022-11-22T15:16:39;47.18;43.66;51.59;;
72805;Laerm;60920;48.748;19.142;2022-11-22T15:19:04;46.23;42.19;50.75;;
72805;Laerm;60920;48.748;19.142;2022-11-22T15:21:31;46.31;41.91;51.66;;